Time;durP1;ratioP1;P1;durP2;ratioP2;P2;SDS_P1;SDS_P2;PMS_P1;PMS_P2;Temp;Humidity;BMP_temperature;BMP_pressure;BME280_temperature;BME280_humidity;BME280_pressure;Samples;Min_cycle;Max_cycle;Signal;HPM_P1;HPM_P2
2021/03/06 00:00:52;;;;;;;8.70;5.65;;;;;;;0.96;56.83;102040.28;5062714;28;20257;-74
2021/03/06 00:03:18;;;;;;;8.05;5.60;;;;;;;0.93;57.32;102048.25;5062825;28;20195;-74
2021/03/06 00:05:45;;;;;;;9.38;6.22;;;;;;;0.84;57.89;102048.47;5061182;28;20245;-74
2021/03/06 00:08:11;;;;;;;8.30;6.95;;;;;;;0.89;58.02;102052.72;5062472;28;20210;-74
2021/03/06 00:10:37;;;;;;;10.15;6.07;;;;;;;0.90;57.72;102050.94;5062841;28;20399;-74
2021/03/06 00:13:03;;;;;;;8.55;6.07;;;;;;;0.91;57.63;102050.06;5061894;28;20210;-74
2021/03/06 00:15:30;;;;;;;6.32;5.07;;;;;;;0.88;57.40;102050.13;5061333;28;20261;-74
2021/03/06 00:17:57;;;;;;;10.80;6.07;;;;;;;0.85;57.68;102051.06;5061357;28;20257;-74
2021/03/06 00:20:23;;;;;;;6.03;4.65;;;;;;;0.93;57.56;102054.38;5060666;28;20205;-74
2021/03/06 00:22:50;;;;;;;7.50;6.10;;;;;;;1.01;57.25;102059.50;5061950;28;20206;-74
2021/03/06 00:25:18;;;;;;;8.80;4.88;;;;;;;0.98;57.03;102063.97;5061834;28;20285;-74
2021/03/06 00:27:44;;;;;;;10.75;5.35;;;;;;;1.02;57.11;102062.97;5062288;28;20210;-74
2021/03/06 00:30:12;;;;;;;7.03;4.90;;;;;;;0.94;57.92;102065.81;5042214;28;20211;-74
2021/03/06 00:32:38;;;;;;;9.10;5.05;;;;;;;0.95;57.78;102059.63;5043876;28;20217;-74
2021/03/06 00:35:08;;;;;;;9.52;5.15;;;;;;;1.02;57.42;102071.75;5061909;28;20191;-74
2021/03/06 00:37:34;;;;;;;5.20;4.60;;;;;;;0.84;58.19;102061.63;5062443;28;20225;-74
2021/03/06 00:40:00;;;;;;;9.02;5.30;;;;;;;0.89;58.13;102075.56;5042492;28;20207;-74
2021/03/06 00:42:26;;;;;;;5.22;4.70;;;;;;;0.82;58.53;102063.44;5058836;28;20246;-74
2021/03/06 00:44:52;;;;;;;9.15;5.60;;;;;;;0.81;59.02;102061.69;5062861;28;20210;-74
2021/03/06 00:47:19;;;;;;;7.93;5.45;;;;;;;0.81;59.03;102057.28;5061880;28;20234;-74
2021/03/06 00:49:45;;;;;;;7.25;4.93;;;;;;;0.81;58.93;102067.81;5062643;28;20191;-74
2021/03/06 00:52:12;;;;;;;9.00;4.82;;;;;;;0.86;58.73;102060.69;5061934;28;20729;-74
2021/03/06 00:54:38;;;;;;;5.68;5.00;;;;;;;0.79;58.77;102066.13;5062634;28;20246;-74
2021/03/06 00:57:05;;;;;;;8.63;5.45;;;;;;;0.79;58.83;102066.13;5061729;28;20242;-74
2021/03/06 00:59:31;;;;;;;8.32;5.28;;;;;;;0.79;58.81;102066.13;5061709;28;20234;-74
2021/03/06 01:01:57;;;;;;;7.97;5.85;;;;;;;0.76;58.83;102064.41;5062069;28;20258;-74
2021/03/06 01:04:23;;;;;;;8.68;6.43;;;;;;;0.73;58.94;102068.00;5061952;28;20617;-74
2021/03/06 01:06:49;;;;;;;7.50;5.82;;;;;;;0.75;59.06;102060.94;5061892;28;20242;-74
2021/03/06 01:09:17;;;;;;;9.63;6.00;;;;;;;0.66;59.39;102063.75;5062029;28;20203;-74
2021/03/06 01:11:43;;;;;;;12.93;7.13;;;;;;;0.71;59.84;102063.66;5061971;28;20245;-74
2021/03/06 01:14:09;;;;;;;10.77;5.97;;;;;;;0.71;59.58;102061.91;5061445;28;20202;-74
2021/03/06 01:16:35;;;;;;;9.65;6.32;;;;;;;0.72;59.07;102055.72;5061595;28;20293;-75
2021/03/06 01:19:01;;;;;;;7.57;6.00;;;;;;;0.74;58.64;102042.53;5061492;28;20225;-75
2021/03/06 01:21:28;;;;;;;6.90;5.65;;;;;;;0.71;59.18;102038.22;5061541;28;20264;-74
2021/03/06 01:23:54;;;;;;;8.82;6.20;;;;;;;0.60;59.73;102040.19;5062345;28;20202;-74
2021/03/06 01:26:21;;;;;;;9.13;6.20;;;;;;;0.54;60.26;102038.56;5061458;28;20740;-74
2021/03/06 01:28:47;;;;;;;8.75;6.32;;;;;;;0.57;59.83;102042.88;5060902;28;20453;-75
2021/03/06 01:31:13;;;;;;;10.38;7.35;;;;;;;0.61;59.32;102038.41;5061410;28;20234;-74
2021/03/06 01:33:40;;;;;;;7.63;6.25;;;;;;;0.57;59.23;102045.50;5062131;28;20198;-74
2021/03/06 01:36:06;;;;;;;8.10;6.40;;;;;;;0.45;59.73;102043.13;5061117;28;20234;-74
2021/03/06 01:38:33;;;;;;;9.02;6.18;;;;;;;0.35;59.91;102045.97;5061127;28;20256;-74
2021/03/06 01:40:59;;;;;;;12.93;6.75;;;;;;;0.31;60.16;102046.94;5061344;28;20242;-74
2021/03/06 01:43:26;;;;;;;11.45;6.45;;;;;;;0.32;60.83;102042.53;5061422;28;20206;-74
2021/03/06 01:45:52;;;;;;;13.73;8.00;;;;;;;0.32;60.97;102046.03;5061171;28;20257;-74
2021/03/06 01:48:19;;;;;;;9.70;7.35;;;;;;;0.42;60.55;102040.56;5061423;28;20237;-74
2021/03/06 01:50:45;;;;;;;12.70;7.30;;;;;;;0.39;60.25;102041.50;5060905;28;20237;-74
2021/03/06 01:53:13;;;;;;;9.55;6.30;;;;;;;0.43;59.93;102040.53;5060391;28;20238;-74
2021/03/06 01:55:42;;;;;;;7.47;6.15;;;;;;;0.28;60.96;102032.94;5060771;28;20275;-75
2021/03/06 01:58:09;;;;;;;14.63;6.90;;;;;;;0.25;61.04;102030.41;5060917;28;20250;-74
2021/03/06 02:00:36;;;;;;;9.73;7.10;;;;;;;0.22;61.13;102027.84;5060844;28;20242;-75
2021/03/06 02:03:03;;;;;;;12.02;6.63;;;;;;;0.24;61.12;102018.13;5061781;28;20646;-74
2021/03/06 02:05:30;;;;;;;8.95;6.43;;;;;;;0.22;61.48;102023.44;5060550;28;20329;-74
2021/03/06 02:07:56;;;;;;;7.00;5.80;;;;;;;0.17;61.66;102025.28;5060893;28;20224;-74
2021/03/06 02:10:28;;;;;;;9.70;6.88;;;;;;;0.06;61.60;102019.38;5060988;28;20191;-75
2021/03/06 02:12:59;;;;;;;9.23;5.90;;;;;;;0.08;61.75;102022.84;5061565;28;20201;-74
2021/03/06 02:15:33;;;;;;;9.90;5.82;;;;;;;-0.03;61.94;102020.41;5060045;28;20237;-75
2021/03/06 02:18:03;;;;;;;10.65;6.55;;;;;;;-0.12;62.69;102024.09;5060957;28;20248;-74
2021/03/06 02:20:40;;;;;;;12.40;6.20;;;;;;;-0.08;62.70;102028.38;5060660;28;20245;-74
2021/03/06 02:23:41;;;;;;;15.93;6.10;;;;;;;-0.09;62.78;102023.16;5060707;28;20194;-74
2021/03/06 02:26:21;;;;;;;8.10;6.03;;;;;;;-0.10;63.10;102027.56;5060055;28;20249;-74
2021/03/06 02:28:50;;;;;;;6.75;5.32;;;;;;;-0.09;63.22;102028.41;5060482;28;20268;-75
2021/03/06 02:31:17;;;;;;;9.57;6.40;;;;;;;-0.15;63.44;102034.66;5060558;28;20273;-75
2021/03/06 02:33:50;;;;;;;10.85;6.70;;;;;;;-0.20;63.71;102018.97;5060987;28;20276;-74
2021/03/06 02:36:21;;;;;;;9.52;6.53;;;;;;;-0.17;63.52;102022.41;5059807;28;20253;-74
2021/03/06 02:38:48;;;;;;;7.60;6.03;;;;;;;-0.11;62.77;102024.94;5060433;28;20264;-75
2021/03/06 02:41:14;;;;;;;9.32;6.05;;;;;;;-0.08;62.85;102022.28;5060740;28;20241;-74
2021/03/06 02:43:41;;;;;;;8.07;6.30;;;;;;;-0.22;63.10;102022.53;5060876;28;20230;-75
2021/03/06 02:46:08;;;;;;;7.75;5.97;;;;;;;-0.31;63.58;102020.94;5059913;28;20260;-75
2021/03/06 02:48:35;;;;;;;8.07;5.82;;;;;;;-0.30;63.60;102027.91;5060717;28;20228;-75
2021/03/06 02:51:02;;;;;;;9.35;6.75;;;;;;;-0.35;63.69;102023.63;5060174;28;20234;-75
2021/03/06 02:53:28;;;;;;;7.80;5.80;;;;;;;-0.33;63.64;102021.84;5060757;28;20707;-75
2021/03/06 02:55:54;;;;;;;10.25;5.20;;;;;;;-0.36;63.69;102021.88;5059916;28;20283;-75
2021/03/06 02:58:25;;;;;;;6.68;5.70;;;;;;;-0.44;63.96;102022.03;5059820;28;20250;-74
2021/03/06 03:00:52;;;;;;;11.75;6.22;;;;;;;-0.49;64.19;102023.88;5060032;28;20238;-75
2021/03/06 03:03:24;;;;;;;7.05;5.45;;;;;;;-0.53;64.74;102023.06;5061596;28;20230;-75
2021/03/06 03:05:59;;;;;;;6.65;5.65;;;;;;;-0.53;64.89;102017.78;5063464;28;20245;-75
2021/03/06 03:08:29;;;;;;;8.82;6.15;;;;;;;-0.41;64.40;102025.47;5044889;28;20222;-75
2021/03/06 03:10:57;;;;;;;10.18;5.15;;;;;;;-0.41;64.12;102022.84;5044337;28;20234;-75
2021/03/06 03:13:28;;;;;;;7.22;5.15;;;;;;;-0.45;64.11;102020.28;5064339;28;20199;-75
2021/03/06 03:15:59;;;;;;;7.30;5.15;;;;;;;-0.48;64.01;102015.09;5063963;28;20264;-75
2021/03/06 03:18:28;;;;;;;10.20;4.90;;;;;;;-0.53;64.37;102017.78;5064269;28;20226;-75
2021/03/06 03:20:56;;;;;;;6.07;4.55;;;;;;;-0.47;64.51;102017.72;5063876;28;20261;-75
2021/03/06 03:23:27;;;;;;;9.57;5.30;;;;;;;-0.46;64.60;102016.78;5064083;28;20194;-74
2021/03/06 03:25:54;;;;;;;7.20;5.03;;;;;;;-0.47;64.58;102014.19;5063098;28;20686;-75
2021/03/06 03:28:21;;;;;;;7.07;5.10;;;;;;;-0.43;64.47;102018.50;5063567;28;20241;-74
2021/03/06 03:30:48;;;;;;;6.72;5.40;;;;;;;-0.50;64.98;102025.63;5063161;28;20317;-75
2021/03/06 03:33:15;;;;;;;5.60;4.63;;;;;;;-0.53;65.00;102025.69;5064602;28;20614;-75
2021/03/06 03:35:42;;;;;;;6.55;5.05;;;;;;;-0.61;65.34;102015.31;5062781;28;20279;-75
2021/03/06 03:38:09;;;;;;;5.75;5.15;;;;;;;-0.57;65.30;102024.00;5064396;28;20300;-75
2021/03/06 03:40:36;;;;;;;10.05;5.95;;;;;;;-0.58;65.44;102025.75;5063475;28;20838;-74
2021/03/06 03:43:03;;;;;;;13.25;6.00;;;;;;;-0.53;65.26;102017.78;5064266;28;20187;-75
2021/03/06 03:45:29;;;;;;;6.47;5.13;;;;;;;-0.57;65.25;102022.25;5062956;28;20258;-75
2021/03/06 03:47:55;;;;;;;6.68;4.70;;;;;;;-0.61;65.42;102017.06;5063635;28;20217;-75
2021/03/06 03:50:22;;;;;;;7.65;5.22;;;;;;;-0.54;65.30;102021.31;5063235;28;20206;-74
2021/03/06 03:52:50;;;;;;;9.15;5.13;;;;;;;-0.59;65.15;102017.88;5063779;28;20210;-75
2021/03/06 03:55:18;;;;;;;7.05;4.93;;;;;;;-0.56;65.22;102023.09;5062764;28;20234;-75
2021/03/06 03:57:44;;;;;;;10.43;4.70;;;;;;;-0.57;65.39;102026.63;5063122;28;20684;-75
2021/03/06 04:00:12;;;;;;;6.07;5.32;;;;;;;-0.55;65.60;102032.72;5062792;28;20314;-75
2021/03/06 04:02:39;;;;;;;9.80;5.47;;;;;;;-0.58;65.89;102035.41;5064172;28;20186;-75
2021/03/06 04:05:07;;;;;;;6.43;4.97;;;;;;;-0.65;65.48;102039.00;5062761;28;20198;-74
2021/03/06 04:07:41;;;;;;;12.77;5.25;;;;;;;-0.54;65.16;102034.44;5062624;28;20325;-74
2021/03/06 04:10:08;;;;;;;6.45;5.07;;;;;;;-0.59;64.87;102029.28;5063097;28;20241;-75
2021/03/06 04:12:35;;;;;;;7.75;5.60;;;;;;;-0.61;65.33;102036.31;5063383;28;20230;-75
2021/03/06 04:15:02;;;;;;;9.35;4.85;;;;;;;-0.64;65.24;102038.13;5062745;28;20218;-74
2021/03/06 04:17:28;;;;;;;8.07;5.43;;;;;;;-0.95;66.63;102031.59;5062520;28;20237;-75
2021/03/06 04:19:54;;;;;;;8.68;5.57;;;;;;;-0.80;66.29;102038.38;5063186;28;20630;-75
2021/03/06 04:22:20;;;;;;;6.00;5.22;;;;;;;-0.67;65.83;102039.03;5062411;28;20261;-74
2021/03/06 04:24:46;;;;;;;7.63;4.93;;;;;;;-0.70;65.94;102044.34;5063562;28;20190;-75
2021/03/06 04:27:12;;;;;;;5.93;4.90;;;;;;;-0.70;65.99;102040.84;5061787;28;20226;-75
2021/03/06 04:29:39;;;;;;;6.93;5.07;;;;;;;-0.67;65.58;102043.44;5062900;28;20241;-75
2021/03/06 04:32:06;;;;;;;8.98;5.53;;;;;;;-0.70;65.59;102039.06;5062667;28;20276;-75
2021/03/06 04:34:32;;;;;;;6.07;5.47;;;;;;;-0.62;65.09;102045.09;5062635;28;20210;-75
2021/03/06 04:36:58;;;;;;;8.57;4.90;;;;;;;-0.61;65.02;102045.94;5062043;28;20936;-75
2021/03/06 04:39:24;;;;;;;7.13;5.10;;;;;;;-0.64;64.92;102040.75;5063058;28;20226;-75
2021/03/06 04:41:50;;;;;;;8.10;5.47;;;;;;;-0.78;65.71;102054.13;5062050;28;20241;-75
2021/03/06 04:44:17;;;;;;;7.63;5.60;;;;;;;-0.68;65.50;102054.81;5062832;28;20210;-75
2021/03/06 04:46:44;;;;;;;6.93;5.45;;;;;;;-0.86;66.14;102056.84;5061601;28;20316;-75
2021/03/06 04:49:10;;;;;;;7.75;5.30;;;;;;;-0.84;66.46;102051.56;5062545;28;20206;-75
2021/03/06 04:51:36;;;;;;;5.43;4.70;;;;;;;-0.96;66.48;102048.22;5062203;28;20241;-75
2021/03/06 04:54:03;;;;;;;6.65;5.13;;;;;;;-0.87;66.22;102055.09;5063030;28;20730;-75
2021/03/06 04:56:29;;;;;;;9.20;5.05;;;;;;;-1.02;66.50;102056.19;5061808;28;20248;-75
2021/03/06 04:58:55;;;;;;;10.90;6.18;;;;;;;-0.93;66.17;102060.44;5061283;28;20230;-75
2021/03/06 05:01:22;;;;;;;7.75;5.82;;;;;;;-0.86;66.10;102061.22;5061779;28;20242;-75
2021/03/06 05:03:49;;;;;;;7.43;4.90;;;;;;;-0.84;65.39;102051.56;5062510;28;20199;-75
2021/03/06 05:06:15;;;;;;;7.47;6.05;;;;;;;-0.80;65.48;102051.50;5061068;28;20249;-75
2021/03/06 05:08:41;;;;;;;8.38;6.30;;;;;;;-0.78;64.88;102056.75;5061303;28;20229;-74
2021/03/06 05:11:08;;;;;;;6.47;5.07;;;;;;;-0.62;64.49;102066.09;5062085;28;20234;-75
2021/03/06 05:13:34;;;;;;;6.05;5.45;;;;;;;-0.72;64.76;102058.41;5061980;28;20218;-74
2021/03/06 05:16:00;;;;;;;7.40;5.30;;;;;;;-0.92;65.57;102059.56;5061315;28;20250;-75
2021/03/06 05:18:26;;;;;;;5.53;4.95;;;;;;;-0.92;65.64;102059.56;5061870;28;20225;-75
2021/03/06 05:20:54;;;;;;;25.13;6.63;;;;;;;-0.86;65.78;102058.59;5061219;28;20234;-75
2021/03/06 05:23:20;;;;;;;9.50;5.90;;;;;;;-0.79;64.98;102057.63;5062474;28;20209;-75
2021/03/06 05:25:46;;;;;;;7.70;5.90;;;;;;;-0.88;64.87;102056.00;5061444;28;20233;-75
2021/03/06 05:28:12;;;;;;;10.10;5.75;;;;;;;-1.09;65.97;102065.06;5061563;28;20203;-75
2021/03/06 05:30:38;;;;;;;8.45;5.95;;;;;;;-1.02;66.03;102065.84;5061227;28;20245;-75
2021/03/06 05:33:05;;;;;;;10.50;6.32;;;;;;;-0.91;65.45;102070.94;5061603;28;20229;-75
2021/03/06 05:35:31;;;;;;;10.00;5.55;;;;;;;-0.79;64.79;102076.84;5060843;28;20234;-74
2021/03/06 05:37:58;;;;;;;8.68;5.78;;;;;;;-0.84;64.98;102072.56;5061714;28;20427;-75
2021/03/06 05:40:27;;;;;;;9.52;6.78;;;;;;;-0.88;64.94;102084.88;5061657;28;20264;-75
2021/03/06 05:42:54;;;;;;;14.80;5.90;;;;;;;-0.87;63.98;102080.50;5061628;28;20187;-75
2021/03/06 05:45:20;;;;;;;10.30;6.18;;;;;;;-1.01;65.00;102078.06;5060581;28;20210;-75
2021/03/06 05:47:46;;;;;;;10.32;6.50;;;;;;;-1.00;65.78;102074.56;5060801;28;20215;-75
2021/03/06 05:50:12;;;;;;;11.15;5.60;;;;;;;-0.88;65.50;102079.63;5061001;28;20206;-75
2021/03/06 05:52:40;;;;;;;9.77;6.65;;;;;;;-1.07;66.33;102081.66;5061551;28;20211;-74
2021/03/06 05:55:12;;;;;;;7.15;5.90;;;;;;;-0.89;66.12;102075.25;5060677;28;20245;-75
2021/03/06 05:57:40;;;;;;;9.88;5.97;;;;;;;-0.91;66.23;102084.06;5060521;28;20225;-74
2021/03/06 06:00:07;;;;;;;6.68;6.07;;;;;;;-0.82;66.19;102082.16;5061016;28;20233;-74
2021/03/06 06:02:34;;;;;;;10.73;7.30;;;;;;;-0.79;66.10;102084.75;5061270;28;20206;-74
2021/03/06 06:05:01;;;;;;;9.00;5.80;;;;;;;-0.76;66.46;102076.81;5061175;28;20561;-74
2021/03/06 06:07:27;;;;;;;6.63;5.85;;;;;;;-0.67;66.34;102088.09;5060521;28;20237;-74
2021/03/06 06:09:55;;;;;;;9.95;6.50;;;;;;;-0.48;65.73;102096.56;5061161;28;20670;-74
2021/03/06 06:12:22;;;;;;;12.13;8.05;;;;;;;-0.51;64.57;102089.56;5061130;28;20264;-74
2021/03/06 06:14:48;;;;;;;16.13;9.18;;;;;;;-0.27;63.91;102090.06;5060779;28;20206;-74
2021/03/06 06:17:14;;;;;;;10.52;6.90;;;;;;;-0.21;63.33;102084.69;5061268;28;20234;-74
2021/03/06 06:19:40;;;;;;;8.07;6.22;;;;;;;-0.04;63.48;102097.56;5060649;28;20233;-74
2021/03/06 06:22:17;;;;;;;7.80;7.00;;;;;;;-0.31;63.69;102085.75;5060826;28;20275;-74
2021/03/06 06:24:44;;;;;;;11.35;7.00;;;;;;;-0.28;64.09;102086.59;5061169;28;20202;-74
2021/03/06 06:27:11;;;;;;;9.55;6.70;;;;;;;-0.66;66.08;102088.06;5060199;28;20325;-74
2021/03/06 06:29:39;;;;;;;9.35;7.20;;;;;;;-0.04;64.63;102092.28;5060528;28;20202;-74
2021/03/06 06:32:07;;;;;;;10.65;7.15;;;;;;;-0.28;64.90;102099.72;5060610;28;20230;-74
2021/03/06 06:34:36;;;;;;;11.70;6.63;;;;;;;-0.20;64.74;102091.69;5061546;28;20249;-74
2021/03/06 06:37:08;;;;;;;8.75;6.55;;;;;;;0.49;63.57;102102.72;5060404;28;20293;-74
2021/03/06 06:39:34;;;;;;;8.82;6.88;;;;;;;0.26;63.83;102097.88;5063801;28;20225;-74
2021/03/06 06:42:01;;;;;;;10.85;7.07;;;;;;;-0.06;65.76;102089.69;5064819;28;20270;-74
2021/03/06 06:44:28;;;;;;;8.75;5.90;;;;;;;0.66;65.19;102094.47;5065020;28;20739;-74
2021/03/06 06:46:56;;;;;;;15.77;6.05;;;;;;;3.51;56.37;102081.69;5064300;28;20265;-74
2021/03/06 06:49:23;;;;;;;7.53;5.60;;;;;;;4.94;50.82;102089.00;5064982;28;20270;-74
2021/03/06 06:52:00;;;;;;;12.43;5.90;;;;;;;5.66;49.33;102091.44;5064270;28;20492;-74
2021/03/06 06:54:27;;;;;;;12.13;4.60;;;;;;;7.29;44.80;102099.25;5044731;28;20822;-75
2021/03/06 06:57:09;;;;;;;8.23;4.20;;;;;;;9.30;40.15;102092.38;5060073;28;20491;-74
2021/03/06 06:59:35;;;;;;;7.60;4.63;;;;;;;10.36;38.00;102102.19;5064124;28;20500;-75
2021/03/06 07:02:06;;;;;;;4.90;4.40;;;;;;;10.82;36.29;102106.53;5064415;28;20487;-75
2021/03/06 07:04:49;;;;;;;7.23;4.70;;;;;;;10.97;36.31;102107.34;5064253;28;20480;-75
2021/03/06 07:07:17;;;;;;;9.63;5.43;;;;;;;11.00;35.13;102110.69;5064143;28;20488;-75
2021/03/06 07:10:07;;;;;;;10.80;4.50;;;;;;;11.23;34.38;102111.91;5064044;28;20445;-75
2021/03/06 07:12:34;;;;;;;7.73;4.60;;;;;;;9.73;36.79;102109.44;5049064;28;20477;-75
2021/03/06 07:15:02;;;;;;;6.33;4.50;;;;;;;7.98;40.85;102119.78;5061441;28;20456;-75
2021/03/06 07:17:40;;;;;;;8.57;5.83;;;;;;;6.64;44.50;102118.22;5061970;28;20548;-75
2021/03/06 07:20:08;;;;;;;7.87;4.80;;;;;;;5.38;47.89;102115.53;5060508;28;20495;-74
2021/03/06 07:22:35;;;;;;;16.93;11.47;;;;;;;4.91;49.23;102119.09;5062340;28;20449;-75
2021/03/06 07:25:02;;;;;;;7.70;5.20;;;;;;;4.21;51.57;102119.91;5061114;28;20445;-75
2021/03/06 07:27:28;;;;;;;8.43;6.87;;;;;;;4.46;51.51;102122.53;5061158;28;21133;-75
2021/03/06 07:29:54;;;;;;;8.50;5.57;;;;;;;4.59;51.85;102126.47;5061477;28;20514;-75
2021/03/06 07:32:24;;;;;;;5.80;5.10;;;;;;;5.35;50.01;102124.50;5059663;28;20541;-75
2021/03/06 07:34:52;;;;;;;8.97;5.50;;;;;;;5.44;49.88;102124.13;5052510;28;20443;-74
2021/03/06 07:37:20;;;;;;;7.37;5.80;;;;;;;5.42;49.87;102130.44;5060276;28;20496;-75
2021/03/06 07:39:51;;;;;;;8.50;4.90;;;;;;;5.18;50.22;102119.84;5061853;28;20531;-75
2021/03/06 07:42:22;;;;;;;10.23;6.00;;;;;;;4.23;53.11;102123.34;5061543;28;20487;-75
2021/03/06 07:44:50;;;;;;;9.30;5.53;;;;;;;3.86;55.08;102119.31;5061141;28;21404;-75
2021/03/06 07:47:16;;;;;;;11.93;6.37;;;;;;;4.31;53.09;102123.97;5060097;28;21003;-74
2021/03/06 07:49:43;;;;;;;12.70;5.57;;;;;;;3.95;53.79;102114.56;5060456;28;20464;-75
2021/03/06 07:52:11;;;;;;;9.63;6.60;;;;;;;4.29;53.25;102109.91;5060298;28;20480;-74
2021/03/06 07:54:38;;;;;;;7.00;5.40;;;;;;;4.50;52.33;102109.13;5059235;28;20496;-74
2021/03/06 07:57:05;;;;;;;8.40;5.53;;;;;;;4.76;52.67;102120.56;5052307;28;20563;-74
2021/03/06 07:59:47;;;;;;;7.73;6.40;;;;;;;4.84;52.90;102115.84;5060091;28;20484;-74
2021/03/06 08:02:43;;;;;;;9.00;5.47;;;;;;;5.69;50.72;102106.34;5058449;28;20476;-74
2021/03/06 08:05:43;;;;;;;10.80;5.60;;;;;;;6.43;49.20;102113.88;5040250;28;20517;-75
2021/03/06 08:08:10;;;;;;;5.37;4.87;;;;;;;6.26;48.70;102106.63;5040860;28;20516;-75
2021/03/06 08:11:04;;;;;;;9.57;4.47;;;;;;;5.58;49.17;102104.13;5039840;28;20497;-75
2021/03/06 08:13:40;;;;;;;5.60;4.00;;;;;;;5.68;48.80;102105.50;5040763;28;20856;-75
2021/03/06 08:16:35;;;;;;;7.03;4.70;;;;;;;5.31;48.93;102111.41;5039915;28;21027;-75
2021/03/06 08:19:22;;;;;;;7.03;4.77;;;;;;;5.52;48.74;102107.91;5040167;28;20517;-75
2021/03/06 08:21:49;;;;;;;7.33;5.27;;;;;;;6.03;47.38;102117.31;5022963;28;20497;-76
2021/03/06 08:24:29;;;;;;;8.07;4.70;;;;;;;6.28;46.62;102108.28;5036046;28;20488;-75
2021/03/06 08:27:18;;;;;;;19.47;6.67;;;;;;;6.16;48.15;102119.44;5038145;28;20480;-75
2021/03/06 08:29:45;;;;;;;7.20;5.40;;;;;;;5.55;47.62;102120.19;5038631;28;20437;-75
2021/03/06 08:32:13;;;;;;;8.63;4.80;;;;;;;5.54;48.52;102121.97;5036932;28;20519;-75
2021/03/06 08:34:45;;;;;;;7.97;5.20;;;;;;;5.95;47.78;102130.00;5037520;28;20457;-75
2021/03/06 08:37:39;;;;;;;8.33;4.97;;;;;;;6.29;47.43;102125.09;5019840;28;20486;-75
2021/03/06 08:40:12;;;;;;;7.53;5.60;;;;;;;6.66;45.66;102129.63;5036057;28;20492;-75
2021/03/06 08:42:40;;;;;;;6.93;5.00;;;;;;;6.60;46.48;102129.91;5055295;28;20456;-74
2021/03/06 08:45:13;;;;;;;10.73;5.30;;;;;;;7.01;45.99;102132.47;5059684;28;20452;-75
2021/03/06 08:47:40;;;;;;;8.70;5.07;;;;;;;6.56;45.44;102131.84;5057900;28;20468;-75
2021/03/06 08:50:08;;;;;;;8.30;4.90;;;;;;;6.76;45.88;102124.78;5060812;28;20452;-75
2021/03/06 08:52:35;;;;;;;7.20;5.07;;;;;;;6.50;46.36;102123.28;5061964;28;20468;-75
2021/03/06 08:55:02;;;;;;;6.67;4.80;;;;;;;6.47;44.41;102118.09;5060205;28;20546;-75
2021/03/06 08:57:31;;;;;;;5.70;4.10;;;;;;;6.57;45.25;102116.75;5059272;28;20488;-75
2021/03/06 09:00:00;;;;;;;7.20;3.93;;;;;;;6.64;44.21;102123.53;5061135;28;20483;-75
2021/03/06 09:02:30;;;;;;;6.73;3.07;;;;;;;6.91;43.49;102118.75;5059631;28;20485;-75
2021/03/06 09:05:10;;;;;;;14.63;3.60;;;;;;;7.26;44.22;102129.53;5060872;28;20456;-75
2021/03/06 09:07:38;;;;;;;7.40;3.03;;;;;;;7.07;42.79;102123.38;5058835;28;20483;-76
2021/03/06 09:10:35;;;;;;;5.03;2.10;;;;;;;7.63;42.56;102118.91;5040669;28;20469;-75
2021/03/06 09:13:04;;;;;;;5.00;2.13;;;;;;;7.27;42.67;102125.91;5059579;28;20448;-75
2021/03/06 09:15:43;;;;;;;3.70;2.17;;;;;;;6.76;42.54;102125.63;5059264;28;21003;-75
2021/03/06 09:18:11;;;;;;;4.60;3.87;;;;;;;6.68;43.13;102116.28;5061292;28;20457;-75
2021/03/06 09:20:41;;;;;;;10.17;2.17;;;;;;;6.96;42.54;102124.72;5059891;28;20493;-76
2021/03/06 09:23:08;;;;;;;3.43;2.00;;;;;;;7.37;42.40;102114.84;5058154;28;20491;-75
2021/03/06 09:25:36;;;;;;;6.47;2.67;;;;;;;7.03;43.39;102116.44;5059400;28;20473;-75
2021/03/06 09:28:04;;;;;;;5.57;2.80;;;;;;;6.76;43.34;102107.00;5060179;28;20449;-74
2021/03/06 09:30:34;;;;;;;6.67;3.00;;;;;;;6.91;43.47;102107.22;5057074;28;20472;-75
2021/03/06 09:33:00;;;;;;;9.37;3.47;;;;;;;7.83;42.10;102108.13;5060962;28;20451;-75
2021/03/06 09:35:27;;;;;;;5.47;3.33;;;;;;;8.67;39.03;102118.91;5059901;28;20468;-75
2021/03/06 09:38:04;;;;;;;4.33;3.40;;;;;;;10.23;36.99;102119.91;5059664;28;20437;-75
2021/03/06 09:40:37;;;;;;;4.83;3.03;;;;;;;10.10;36.65;102117.09;5059828;28;20472;-75
2021/03/06 09:43:05;;;;;;;4.03;1.80;;;;;;;10.56;35.36;102117.03;5055952;28;20453;-75
2021/03/06 09:45:31;;;;;;;3.20;1.90;;;;;;;10.47;34.68;102118.47;5048017;28;20490;-75
2021/03/06 09:48:02;;;;;;;4.50;1.80;;;;;;;10.30;35.44;102129.28;5058954;28;20448;-75
2021/03/06 09:50:29;;;;;;;4.30;1.90;;;;;;;10.35;34.40;102122.72;5055446;28;20472;-74
2021/03/06 09:52:55;;;;;;;3.90;2.03;;;;;;;10.59;34.93;102126.66;5059025;28;21161;-74
2021/03/06 09:55:21;;;;;;;5.30;1.80;;;;;;;10.79;34.45;102133.47;5059508;28;20516;-74
2021/03/06 09:57:48;;;;;;;4.90;2.03;;;;;;;10.27;35.06;102129.47;5059540;28;21096;-74
2021/03/06 10:00:23;;;;;;;3.90;1.80;;;;;;;10.10;36.16;102130.47;5057857;28;20493;-75
2021/03/06 10:02:50;;;;;;;2.60;1.43;;;;;;;8.99;37.39;102136.75;5060067;28;20864;-75
2021/03/06 10:05:21;;;;;;;4.13;1.90;;;;;;;9.46;37.24;102130.59;5058971;28;20453;-75
2021/03/06 10:07:48;;;;;;;4.23;2.87;;;;;;;9.69;37.49;102137.28;5057767;28;20976;-75
2021/03/06 10:10:15;;;;;;;6.80;3.50;;;;;;;9.32;36.90;102143.84;5058530;28;20459;-76
2021/03/06 10:12:44;;;;;;;9.03;2.00;;;;;;;9.99;35.85;102139.13;5059737;28;20972;-76
2021/03/06 10:15:12;;;;;;;3.20;2.60;;;;;;;10.55;35.71;102136.69;5057674;28;20488;-75
2021/03/06 10:17:39;;;;;;;6.50;2.83;;;;;;;10.60;34.95;102139.94;5045100;28;20462;-75
2021/03/06 10:20:07;;;;;;;9.87;2.80;;;;;;;10.54;35.14;102138.50;5047459;28;20979;-75
2021/03/06 10:22:44;;;;;;;3.63;2.40;;;;;;;10.21;35.29;102143.19;5052640;28;20511;-75
2021/03/06 10:25:12;;;;;;;6.90;3.50;;;;;;;10.24;36.04;102132.31;5067827;28;20465;-75
2021/03/06 10:27:40;;;;;;;6.90;3.20;;;;;;;9.60;36.56;102129.81;5075234;28;20448;-74
2021/03/06 10:30:12;;;;;;;6.30;2.67;;;;;;;10.33;35.90;102142.50;5059013;28;20449;-75
2021/03/06 10:32:40;;;;;;;4.77;2.17;;;;;;;10.41;35.28;102134.84;5072948;28;20464;-75
2021/03/06 10:35:22;;;;;;;6.57;2.60;;;;;;;9.82;36.24;102141.94;5060862;28;20475;-75
2021/03/06 10:37:51;;;;;;;7.60;2.33;;;;;;;9.84;36.61;102134.69;5058036;28;21179;-75
2021/03/06 10:40:18;;;;;;;5.70;2.40;;;;;;;10.32;36.01;102130.09;5047723;28;20484;-75
2021/03/06 10:42:47;;;;;;;5.13;2.43;;;;;;;10.04;36.58;102136.19;5059860;28;20455;-75
2021/03/06 10:45:24;;;;;;;4.60;2.63;;;;;;;9.93;36.21;102134.13;5066718;28;20451;-75
2021/03/06 10:47:53;;;;;;;12.13;3.80;;;;;;;8.63;38.93;102143.16;5043259;28;20527;-75
2021/03/06 10:50:25;;;;;;;4.57;3.10;;;;;;;9.58;37.33;102134.38;5054659;28;20454;-75
2021/03/06 10:52:52;;;;;;;4.33;2.93;;;;;;;10.31;36.19;102141.69;5038155;28;20485;-75
2021/03/06 10:55:33;;;;;;;5.80;2.60;;;;;;;10.52;35.42;102140.44;5051256;28;20476;-75
2021/03/06 10:58:00;;;;;;;4.10;2.20;;;;;;;10.41;35.44;102128.66;5056744;28;20513;-75
2021/03/06 11:00:26;;;;;;;2.83;2.40;;;;;;;10.94;34.10;102140.53;5045630;28;20485;-75
2021/03/06 11:02:57;;;;;;;4.50;2.60;;;;;;;10.88;34.93;102132.88;5059102;28;21009;-75
2021/03/06 11:05:26;;;;;;;7.10;2.30;;;;;;;10.12;35.42;102131.22;5057231;28;20896;-75
2021/03/06 11:07:52;;;;;;;2.80;2.00;;;;;;;10.72;34.65;102120.47;5057295;28;20456;-75
2021/03/06 11:10:21;;;;;;;6.03;2.00;;;;;;;10.52;34.75;102131.56;5058967;28;20449;-75
2021/03/06 11:12:52;;;;;;;2.63;1.90;;;;;;;10.05;35.46;102122.75;5058772;28;20479;-75
2021/03/06 11:15:22;;;;;;;2.73;1.50;;;;;;;11.15;34.25;102124.94;5045289;28;20461;-75
2021/03/06 11:17:51;;;;;;;4.77;1.70;;;;;;;11.53;33.20;102126.94;5057446;28;20536;-75
2021/03/06 11:20:19;;;;;;;7.80;3.00;;;;;;;12.61;31.44;102125.88;5053911;28;20481;-75
2021/03/06 11:22:46;;;;;;;3.10;1.80;;;;;;;12.22;31.88;102127.72;5038258;28;20458;-75
2021/03/06 11:25:14;;;;;;;3.33;1.50;;;;;;;12.68;31.97;102120.94;5053738;28;20477;-75
2021/03/06 11:27:43;;;;;;;3.17;1.50;;;;;;;11.96;31.55;102113.41;5064697;28;20440;-75
2021/03/06 11:30:10;;;;;;;2.43;1.50;;;;;;;11.58;33.29;102111.44;5062102;28;20468;-75
2021/03/06 11:32:36;;;;;;;2.77;1.63;;;;;;;12.49;32.26;102113.34;5069241;28;20451;-75
2021/03/06 11:35:04;;;;;;;2.50;2.10;;;;;;;12.39;31.08;102112.25;5062637;28;20445;-75